Time;durP1;ratioP1;P1;durP2;ratioP2;P2;SDS_P1;SDS_P2;PMS_P1;PMS_P2;Temp;Humidity;BMP_temperature;BMP_pressure;BME280_temperature;BME280_humidity;BME280_pressure;Samples;Min_cycle;Max_cycle;Signal;HPM_P1;HPM_P2
2023/08/02 00:00:40;;;;;;;1.67;0.70;;;;;;;15.18;100.00;99464.25;4939501;29;20051;-85
2023/08/02 00:03:08;;;;;;;4.53;1.25;;;;;;;15.10;100.00;99454.06;4941974;29;20043;-83
2023/08/02 00:05:34;;;;;;;2.88;1.10;;;;;;;15.02;100.00;99458.84;4943501;29;20043;-83
2023/08/02 00:08:01;;;;;;;2.40;1.27;;;;;;;14.98;100.00;99458.13;4945147;29;20395;-83
2023/08/02 00:10:27;;;;;;;4.65;2.05;;;;;;;14.90;100.00;99457.66;4930386;28;20078;-84
2023/08/02 00:12:54;;;;;;;1.80;1.25;;;;;;;14.80;100.00;99456.34;4931147;29;20094;-85
2023/08/02 00:15:20;;;;;;;3.88;1.27;;;;;;;14.74;100.00;99457.47;4942773;29;20570;-90
2023/08/02 00:17:48;;;;;;;3.03;1.40;;;;;;;14.74;100.00;99452.19;4928417;28;20502;-86
2023/08/02 00:20:14;;;;;;;2.70;0.80;;;;;;;14.77;100.00;99451.22;4930804;29;20082;-84
2023/08/02 00:22:41;;;;;;;3.05;1.00;;;;;;;14.82;100.00;99455.38;4931665;28;20048;-83
2023/08/02 00:25:08;;;;;;;3.00;1.25;;;;;;;14.84;100.00;99450.03;4936323;29;20054;-85
2023/08/02 00:27:35;;;;;;;4.45;1.48;;;;;;;14.79;100.00;99458.13;4933457;28;20047;-84
2023/08/02 00:30:01;;;;;;;1.92;1.30;;;;;;;14.77;100.00;99459.97;4928085;29;20062;-83
2023/08/02 00:32:28;;;;;;;1.70;0.85;;;;;;;14.76;100.00;99455.63;4939157;29;20458;-87
2023/08/02 00:34:55;;;;;;;3.92;1.45;;;;;;;14.74;100.00;99457.47;4935336;29;20050;-85
2023/08/02 00:37:26;;;;;;;2.78;1.05;;;;;;;14.76;100.00;99458.28;4940993;29;20043;-90
2023/08/02 00:39:54;;;;;;;2.58;1.20;;;;;;;14.78;100.00;99460.81;4951602;28;20534;-83
2023/08/02 00:42:21;;;;;;;2.58;0.93;;;;;;;14.79;100.00;99455.47;4920600;28;20047;-85
2023/08/02 00:44:47;;;;;;;2.53;1.13;;;;;;;14.79;100.00;99450.22;4938048;28;20039;-85
2023/08/02 00:47:14;;;;;;;1.50;1.15;;;;;;;14.79;100.00;99446.75;4918498;29;20054;-86
2023/08/02 00:49:41;;;;;;;5.78;1.42;;;;;;;14.82;100.00;99455.38;4932337;29;20049;-86
2023/08/02 00:52:09;;;;;;;4.53;1.15;;;;;;;14.83;100.00;99451.78;4934346;29;20043;-86
2023/08/02 00:54:36;;;;;;;2.20;1.17;;;;;;;14.87;100.00;99452.50;4937139;28;20042;-88
2023/08/02 00:57:03;;;;;;;6.95;1.60;;;;;;;14.88;100.00;99449.78;4932433;29;20043;-88
2023/08/02 00:59:30;;;;;;;7.80;1.63;;;;;;;14.89;100.00;99443.59;4914353;29;20054;-88
2023/08/02 01:01:57;;;;;;;1.48;1.33;;;;;;;14.93;100.00;99440.81;4940956;29;20046;-84
2023/08/02 01:04:24;;;;;;;4.20;1.25;;;;;;;14.91;100.00;99446.16;4921520;29;20055;-86
2023/08/02 01:07:09;;;;;;;5.40;1.85;;;;;;;14.86;100.00;99446.38;4925859;28;20058;-85
2023/08/02 01:09:46;;;;;;;3.15;1.58;;;;;;;14.80;100.00;99443.19;4939287;28;20504;-85
2023/08/02 01:12:12;;;;;;;2.45;1.30;;;;;;;14.78;100.00;99442.38;4940844;28;20488;-84
2023/08/02 01:14:42;;;;;;;4.57;1.45;;;;;;;14.75;100.00;99432.00;4932884;28;20058;-84
2023/08/02 01:17:11;;;;;;;6.18;2.70;;;;;;;14.73;100.00;99434.69;4924413;29;20127;-83
2023/08/02 01:19:37;;;;;;;4.63;1.65;;;;;;;14.75;100.00;99424.09;4940082;29;20043;-83
2023/08/02 01:22:04;;;;;;;3.47;1.92;;;;;;;14.75;100.00;99435.47;4937840;29;20046;-84
2023/08/02 01:24:35;;;;;;;3.83;1.90;;;;;;;14.81;100.00;99422.03;4948668;29;20045;-83
2023/08/02 01:27:09;;;;;;;5.43;2.00;;;;;;;14.79;100.00;99426.50;4950255;29;20047;-84
2023/08/02 01:29:38;;;;;;;4.25;1.95;;;;;;;14.78;100.00;99416.03;4924940;29;20043;-86
2023/08/02 01:32:09;;;;;;;3.88;1.58;;;;;;;14.81;100.00;99418.53;4938007;29;20150;-85
2023/08/02 01:34:36;;;;;;;2.78;1.95;;;;;;;14.81;100.00;99415.88;4918505;29;20431;-83
2023/08/02 01:37:02;;;;;;;5.55;1.60;;;;;;;14.78;100.00;99414.25;4923802;29;20371;-83
2023/08/02 01:39:31;;;;;;;2.25;1.92;;;;;;;14.77;100.00;99412.56;4944583;28;20047;-84
2023/08/02 01:41:58;;;;;;;7.45;1.73;;;;;;;14.74;100.00;99402.16;4927830;28;20039;-84
2023/08/02 01:44:24;;;;;;;9.50;1.73;;;;;;;14.78;100.00;99400.22;4924468;28;20051;-84
2023/08/02 01:46:51;;;;;;;4.35;1.55;;;;;;;14.79;100.00;99401.94;4948473;29;20066;-88
2023/08/02 01:49:17;;;;;;;3.40;1.40;;;;;;;14.80;100.00;99406.31;4941135;29;20054;-85
2023/08/02 01:51:44;;;;;;;3.03;1.52;;;;;;;14.82;100.00;99397.41;4920325;28;20090;-84
2023/08/02 01:54:11;;;;;;;5.88;2.35;;;;;;;14.84;100.00;99392.06;4933928;29;20039;-84
2023/08/02 01:56:38;;;;;;;3.85;1.73;;;;;;;14.85;100.00;99399.88;4929144;29;20045;-88
2023/08/02 01:59:04;;;;;;;8.02;1.63;;;;;;;14.88;100.00;99398.88;4956332;28;20040;-85
2023/08/02 02:01:31;;;;;;;4.25;1.75;;;;;;;14.90;100.00;99391.78;4937156;29;20419;-89
2023/08/02 02:03:57;;;;;;;3.15;1.25;;;;;;;14.86;100.00;99375.25;4928543;29;20126;-84
2023/08/02 02:06:24;;;;;;;7.07;1.95;;;;;;;14.84;100.00;99377.09;4924227;28;20058;-84
2023/08/02 02:08:53;;;;;;;3.38;1.52;;;;;;;14.85;100.00;99365.63;4940889;28;20059;-83
2023/08/02 02:11:19;;;;;;;2.92;1.50;;;;;;;14.84;100.00;99365.72;4923521;29;20045;-84
2023/08/02 02:13:46;;;;;;;7.75;1.92;;;;;;;14.85;100.00;99367.44;4933387;28;20039;-85
2023/08/02 02:16:12;;;;;;;3.38;1.35;;;;;;;14.86;100.00;99375.25;4935297;28;20036;-84
2023/08/02 02:18:39;;;;;;;7.18;2.50;;;;;;;14.88;100.00;99383.91;4926627;29;20502;-83
2023/08/02 02:21:06;;;;;;;2.67;1.30;;;;;;;14.90;100.00;99378.59;4939298;29;20050;-85
2023/08/02 02:23:32;;;;;;;3.88;1.77;;;;;;;14.92;100.00;99374.09;4932774;28;20063;-84
2023/08/02 02:26:01;;;;;;;4.47;2.08;;;;;;;14.93;100.00;99374.94;4936693;29;20495;-85
2023/08/02 02:28:27;;;;;;;2.55;1.50;;;;;;;14.97;100.00;99385.28;4927794;28;20518;-84
2023/08/02 02:30:54;;;;;;;2.90;1.52;;;;;;;14.98;100.00;99388.75;4949423;28;20081;-86
2023/08/02 02:33:20;;;;;;;2.88;1.77;;;;;;;14.98;100.00;99379.09;4925657;29;20121;-85
2023/08/02 02:35:47;;;;;;;4.45;1.75;;;;;;;14.96;100.00;99378.28;4921837;29;20137;-85
2023/08/02 02:38:14;;;;;;;4.13;1.75;;;;;;;14.97;100.00;99379.16;4935828;29;20068;-84
2023/08/02 02:40:40;;;;;;;4.35;2.22;;;;;;;14.98;100.00;99372.94;4936270;29;20114;-84
2023/08/02 02:43:07;;;;;;;5.82;1.30;;;;;;;14.97;100.00;99376.53;4920023;29;20078;-83
2023/08/02 02:45:33;;;;;;;3.33;1.35;;;;;;;14.95;100.00;99383.63;4926075;28;20103;-85
2023/08/02 02:48:01;;;;;;;4.60;1.80;;;;;;;14.92;100.00;99386.44;4938455;29;20052;-86
2023/08/02 02:50:27;;;;;;;2.95;1.13;;;;;;;14.84;100.00;99379.72;4930140;29;20039;-87
2023/08/02 02:52:54;;;;;;;5.05;2.55;;;;;;;14.73;100.00;99382.00;4935553;29;20049;-84
2023/08/02 02:55:21;;;;;;;2.38;1.58;;;;;;;14.55;100.00;99384.53;4918604;29;20408;-86
2023/08/02 02:57:48;;;;;;;8.43;1.67;;;;;;;14.51;100.00;99382.97;4935006;29;20040;-84
2023/08/02 03:00:25;;;;;;;5.53;2.13;;;;;;;14.46;100.00;99398.13;4919368;28;20483;-87
2023/08/02 03:02:58;;;;;;;5.40;1.88;;;;;;;14.33;100.00;99383.81;4934900;28;20110;-84
2023/08/02 03:05:24;;;;;;;6.28;1.50;;;;;;;14.29;100.00;99387.47;4939202;29;20063;-85
2023/08/02 03:07:51;;;;;;;5.32;1.63;;;;;;;14.22;100.00;99381.63;4928824;28;20043;-85
2023/08/02 03:10:18;;;;;;;5.97;1.90;;;;;;;14.17;100.00;99386.25;4941851;29;20091;-85
2023/08/02 03:12:45;;;;;;;3.45;1.73;;;;;;;14.07;100.00;99378.75;4917181;28;20048;-85
2023/08/02 03:15:12;;;;;;;5.13;1.73;;;;;;;13.99;100.00;99374.78;4934622;29;20123;-84
2023/08/02 03:17:38;;;;;;;3.10;1.70;;;;;;;13.88;100.00;99375.22;4929556;29;20040;-86
2023/08/02 03:20:06;;;;;;;4.25;1.30;;;;;;;13.79;100.00;99375.63;4928873;29;20036;-84
2023/08/02 03:22:34;;;;;;;5.13;3.00;;;;;;;13.71;100.00;99373.31;4923248;29;20098;-85
2023/08/02 03:25:00;;;;;;;3.92;1.50;;;;;;;13.69;100.00;99364.66;4933827;29;20048;-84
2023/08/02 03:27:27;;;;;;;4.40;1.67;;;;;;;13.61;100.00;99362.34;4922816;29;20070;-85
2023/08/02 03:29:53;;;;;;;3.88;2.90;;;;;;;13.51;100.00;99368.91;4943935;29;20043;-84
2023/08/02 03:32:20;;;;;;;5.20;2.10;;;;;;;13.47;100.00;99373.44;4925091;28;20115;-84
2023/08/02 03:34:47;;;;;;;7.25;1.83;;;;;;;13.43;100.00;99373.63;4911184;29;20147;-88
2023/08/02 03:37:13;;;;;;;5.28;2.20;;;;;;;13.36;100.00;99388.75;4935519;28;20043;-91
2023/08/02 03:39:40;;;;;;;2.03;1.70;;;;;;;13.33;100.00;99387.09;4939933;29;20047;-84
2023/08/02 03:42:07;;;;;;;2.63;1.60;;;;;;;13.30;100.00;99386.41;4941780;29;20036;-85
2023/08/02 03:44:34;;;;;;;5.15;1.88;;;;;;;13.26;100.00;99379.53;4943308;29;20130;-84
2023/08/02 03:47:00;;;;;;;5.15;2.15;;;;;;;13.24;100.00;99377.84;4939751;29;20039;-84
2023/08/02 03:49:26;;;;;;;3.00;1.83;;;;;;;13.20;100.00;99368.34;4937963;29;20043;-84
2023/08/02 03:51:53;;;;;;;4.22;1.95;;;;;;;13.21;100.00;99366.59;4926589;29;20049;-83
2023/08/02 03:54:19;;;;;;;7.45;1.92;;;;;;;13.17;100.00;99359.75;4944078;29;20046;-84
2023/08/02 03:56:46;;;;;;;4.50;2.10;;;;;;;13.16;100.00;99356.25;4943413;28;20094;-84
2023/08/02 03:59:17;;;;;;;3.30;2.03;;;;;;;13.12;100.00;99359.09;4956276;29;20075;-84
2023/08/02 04:01:45;;;;;;;2.20;1.75;;;;;;;13.08;100.00;99356.56;4954389;29;20082;-84
2023/08/02 04:04:12;;;;;;;5.75;2.40;;;;;;;13.08;100.00;99342.59;4925989;29;20039;-84
2023/08/02 04:06:38;;;;;;;6.80;2.92;;;;;;;13.07;100.00;99335.59;4942487;29;20053;-85
2023/08/02 04:09:05;;;;;;;2.00;1.67;;;;;;;13.03;100.00;99331.41;4949717;28;20042;-85
2023/08/02 04:11:32;;;;;;;6.68;2.00;;;;;;;13.02;100.00;99327.06;4948137;29;20460;-83
2023/08/02 04:13:58;;;;;;;3.38;2.22;;;;;;;13.09;100.00;99325.91;4935346;29;20402;-83
2023/08/02 04:16:25;;;;;;;8.40;2.47;;;;;;;13.20;100.00;99333.34;4953014;28;20043;-84
2023/08/02 04:18:51;;;;;;;10.75;2.67;;;;;;;13.34;100.00;99322.28;4942951;29;20046;-84
2023/08/02 04:21:20;;;;;;;5.63;2.63;;;;;;;13.47;100.00;99314.75;4944908;28;20399;-84
2023/08/02 04:23:50;;;;;;;5.03;1.85;;;;;;;13.57;100.00;99318.69;4940262;29;20053;-84
2023/08/02 04:26:17;;;;;;;9.38;2.58;;;;;;;13.72;100.00;99332.97;4928333;29;20043;-86
2023/08/02 04:28:48;;;;;;;2.17;1.90;;;;;;;13.85;100.00;99328.88;4958138;28;20126;-84
2023/08/02 04:31:15;;;;;;;5.63;2.10;;;;;;;14.03;100.00;99334.25;4945047;28;20050;-84
2023/08/02 04:33:42;;;;;;;3.88;2.10;;;;;;;14.19;100.00;99335.25;4939353;29;20047;-84
2023/08/02 04:36:08;;;;;;;3.13;1.48;;;;;;;14.35;100.00;99330.16;4932480;29;20048;-84
2023/08/02 04:38:35;;;;;;;4.57;2.17;;;;;;;14.45;100.00;99317.41;4949573;29;20407;-85
2023/08/02 04:41:01;;;;;;;5.13;2.30;;;;;;;14.51;100.00;99311.00;4925499;29;20422;-84
2023/08/02 04:43:28;;;;;;;4.82;1.80;;;;;;;14.56;100.00;99309.00;4943263;29;20055;-84
2023/08/02 04:45:54;;;;;;;5.07;2.13;;;;;;;14.65;100.00;99308.63;4941903;29;20122;-85
2023/08/02 04:48:21;;;;;;;3.67;1.55;;;;;;;14.77;100.00;99311.59;4935081;29;20047;-84
2023/08/02 04:50:49;;;;;;;1.88;1.70;;;;;;;14.85;100.00;99302.41;4936960;28;20046;-84
2023/08/02 04:53:15;;;;;;;3.70;1.73;;;;;;;14.92;100.00;99295.03;4931544;29;20043;-86
2023/08/02 04:55:44;;;;;;;4.07;1.75;;;;;;;14.91;100.00;99301.25;4918893;28;20163;-86
2023/08/02 04:58:13;;;;;;;4.63;2.10;;;;;;;14.91;100.00;99300.41;4934631;28;20051;-85
2023/08/02 05:00:40;;;;;;;2.72;1.60;;;;;;;14.93;100.00;99299.41;4935451;28;20043;-84
2023/08/02 05:03:07;;;;;;;2.72;2.10;;;;;;;14.97;100.00;99289.56;4937971;28;20055;-91
2023/08/02 05:05:33;;;;;;;4.47;1.95;;;;;;;15.04;100.00;99297.09;4924077;29;20051;-84
2023/08/02 05:08:01;;;;;;;4.63;1.95;;;;;;;15.10;100.00;99282.75;4919055;29;20546;-86
2023/08/02 05:10:33;;;;;;;4.20;2.45;;;;;;;15.16;100.00;99274.53;4944361;29;20031;-83
2023/08/02 05:12:59;;;;;;;1.73;1.60;;;;;;;15.20;100.00;99281.38;4936060;29;20130;-84
2023/08/02 05:15:26;;;;;;;3.10;1.45;;;;;;;15.25;100.00;99280.28;4938900;29;20051;-86
2023/08/02 05:17:53;;;;;;;4.15;1.85;;;;;;;15.28;100.00;99282.75;4925781;29;20813;-87
2023/08/02 05:20:19;;;;;;;4.78;1.55;;;;;;;15.29;100.00;99287.09;4948566;28;20075;-83
2023/08/02 05:22:46;;;;;;;4.38;1.90;;;;;;;15.30;100.00;99280.91;4919393;28;20142;-84
2023/08/02 05:25:15;;;;;;;4.75;1.38;;;;;;;15.29;100.00;99285.34;4937568;28;20050;-86
2023/08/02 05:27:41;;;;;;;4.15;1.65;;;;;;;15.28;100.00;99288.03;4922950;29;20063;-86
2023/08/02 05:30:08;;;;;;;2.65;2.10;;;;;;;15.24;100.00;99291.75;4931002;29;20495;-86
2023/08/02 05:32:35;;;;;;;6.95;1.90;;;;;;;15.19;100.00;99295.47;4938372;28;20055;-83
2023/08/02 05:35:04;;;;;;;3.40;2.50;;;;;;;15.14;100.00;99291.38;4924677;29;20471;-83
2023/08/02 05:37:31;;;;;;;4.18;1.77;;;;;;;15.07;100.00;99289.94;4936634;29;20035;-82
2023/08/02 05:39:57;;;;;;;4.63;1.95;;;;;;;14.99;100.00;99282.41;4937003;28;20055;-82
2023/08/02 05:42:27;;;;;;;2.50;1.67;;;;;;;14.91;100.00;99274.88;4937257;29;20090;-84
2023/08/02 05:44:54;;;;;;;5.38;2.10;;;;;;;14.86;100.00;99272.50;4941678;28;20057;-82
2023/08/02 05:47:23;;;;;;;2.60;1.83;;;;;;;14.82;100.00;99278.84;4937682;28;20055;-82
2023/08/02 05:49:50;;;;;;;6.88;2.10;;;;;;;14.78;100.00;99286.97;4929900;29;20094;-83
2023/08/02 05:52:16;;;;;;;3.17;1.58;;;;;;;14.72;100.00;99278.44;4921606;28;20106;-83
2023/08/02 05:54:43;;;;;;;3.58;1.80;;;;;;;14.69;100.00;99282.97;4949543;28;20459;-83
2023/08/02 05:57:09;;;;;;;3.25;2.03;;;;;;;14.65;100.00;99281.44;4938081;29;20043;-83
2023/08/02 05:59:37;;;;;;;3.10;1.92;;;;;;;14.59;100.00;99272.03;4954712;28;20043;-82
2023/08/02 06:02:08;;;;;;;3.70;2.10;;;;;;;14.58;100.00;99256.28;4940584;28;20074;-82
2023/08/02 06:04:42;;;;;;;5.78;3.05;;;;;;;14.61;100.00;99248.25;4953487;29;20126;-84
2023/08/02 06:07:08;;;;;;;;;;;;;;;14.67;100.00;99245.34;4946868;29;20047;-82
2023/08/02 06:09:35;;;;;;;3.85;2.55;;;;;;;14.68;100.00;99233.88;4936357;28;19957;-83
2023/08/02 06:12:01;;;;;;;4.32;2.42;;;;;;;14.76;100.00;99228.22;4933038;28;20101;-83
2023/08/02 06:14:28;;;;;;;4.13;2.10;;;;;;;14.88;100.00;99238.16;4933142;28;20043;-85
2023/08/02 06:16:55;;;;;;;3.42;2.65;;;;;;;15.04;100.00;99240.88;4930325;29;20043;-84
2023/08/02 06:19:21;;;;;;;5.68;2.47;;;;;;;15.25;100.00;99232.81;4939443;28;20039;-83
2023/08/02 06:21:48;;;;;;;3.85;2.00;;;;;;;15.43;100.00;99223.13;4935472;29;20039;-82
2023/08/02 06:24:14;;;;;;;5.30;1.92;;;;;;;15.60;100.00;99215.16;4933280;28;20106;-84
2023/08/02 06:26:41;;;;;;;3.78;1.55;;;;;;;15.84;100.00;99212.22;4935825;28;20066;-82
2023/08/02 06:29:08;;;;;;;4.15;2.00;;;;;;;16.25;100.00;99201.16;4944063;29;20592;-85
2023/08/02 06:31:36;;;;;;;3.50;1.63;;;;;;;16.61;98.78;99201.78;4930149;28;20046;-83
2023/08/02 06:34:02;;;;;;;2.72;1.92;;;;;;;16.99;96.75;99191.66;4951076;28;20043;-83
2023/08/02 06:36:29;;;;;;;3.08;1.92;;;;;;;17.44;96.62;99201.38;4932591;28;20051;-84
2023/08/02 06:38:58;;;;;;;4.03;1.77;;;;;;;17.85;92.60;99206.75;4933761;29;20051;-82
2023/08/02 06:41:25;;;;;;;2.63;1.60;;;;;;;17.95;91.50;99199.16;4935576;28;20047;-83
2023/08/02 06:43:51;;;;;;;2.85;1.25;;;;;;;18.02;91.24;99204.91;4932956;29;20043;-82
2023/08/02 06:46:18;;;;;;;1.40;1.23;;;;;;;18.06;90.69;99208.22;4925742;28;20408;-83
2023/08/02 06:48:46;;;;;;;3.17;1.38;;;;;;;18.01;90.23;99205.84;4937069;29;20043;-82
2023/08/02 06:51:13;;;;;;;2.25;1.23;;;;;;;17.94;90.63;99204.50;4939719;29;20107;-85
2023/08/02 06:53:40;;;;;;;4.53;1.27;;;;;;;17.83;91.61;99200.72;4912329;28;20043;-83
2023/08/02 06:56:15;;;;;;;2.90;1.40;;;;;;;17.74;91.26;99206.56;4926915;28;20039;-84
2023/08/02 06:58:43;;;;;;;3.10;1.17;;;;;;;17.55;91.62;99193.66;4933543;29;20058;-84
2023/08/02 07:01:21;;;;;;;2.35;1.08;;;;;;;17.51;92.89;99192.13;4929577;29;20135;-86
2023/08/02 07:03:49;;;;;;;3.88;1.50;;;;;;;17.61;92.38;99197.69;4935735;29;20067;-83
2023/08/02 07:06:18;;;;;;;1.58;1.17;;;;;;;17.81;92.04;99193.84;4938784;29;20669;-92
2023/08/02 07:08:45;;;;;;;2.63;1.27;;;;;;;18.02;91.05;99181.06;4934158;28;20040;-83
2023/08/02 07:11:12;;;;;;;1.33;1.23;;;;;;;18.27;89.83;99153.84;4930573;29;20047;-89
2023/08/02 07:13:41;;;;;;;2.80;1.00;;;;;;;18.74;88.43;99159.63;4928898;28;20039;-86
2023/08/02 07:16:07;;;;;;;2.30;1.13;;;;;;;19.04;85.84;99149.75;4921954;28;20036;-84
2023/08/02 07:18:34;;;;;;;2.38;1.25;;;;;;;19.11;85.92;99138.59;4937539;28;20075;-84
2023/08/02 07:21:08;;;;;;;1.60;0.90;;;;;;;19.24;86.03;99130.66;4961611;28;20410;-82
2023/08/02 07:23:35;;;;;;;1.25;0.82;;;;;;;19.28;84.90;99131.25;4934225;28;20058;-85
2023/08/02 07:26:04;;;;;;;2.63;1.02;;;;;;;19.08;85.68;99133.50;4930283;29;20047;-85
2023/08/02 07:28:33;;;;;;;1.20;0.93;;;;;;;19.13;86.17;99133.19;4945618;28;20043;-83
2023/08/02 07:31:12;;;;;;;0.98;0.93;;;;;;;19.36;84.26;99136.91;4946892;29;20043;-84
2023/08/02 07:33:41;;;;;;;2.25;0.90;;;;;;;19.75;83.21;99140.34;4937691;28;20051;-83
2023/08/02 07:36:15;;;;;;;2.40;1.13;;;;;;;19.96;81.39;99139.81;4950912;29;20063;-83
2023/08/02 07:38:45;;;;;;;4.60;1.10;;;;;;;19.88;82.26;99139.50;4947899;28;20503;-86
2023/08/02 07:41:12;;;;;;;1.13;1.00;;;;;;;19.79;81.78;99135.66;4950958;29;20082;-82
2023/08/02 07:43:38;;;;;;;3.28;1.00;;;;;;;19.77;82.63;99126.97;4948743;28;20039;-89
2023/08/02 07:46:06;;;;;;;1.08;0.70;;;;;;;19.91;82.75;99129.50;4938712;28;20050;-83
2023/08/02 07:48:32;;;;;;;1.25;0.80;;;;;;;20.26;80.45;99135.84;4943705;29;20456;-84
2023/08/02 07:51:04;;;;;;;3.35;1.23;;;;;;;20.35;79.97;99123.69;4933231;29;20507;-85
2023/08/02 07:53:31;;;;;;;3.65;1.25;;;;;;;20.16;80.19;99122.41;4939041;28;20054;-85
2023/08/02 07:56:02;;;;;;;1.25;1.15;;;;;;;19.97;81.65;99107.81;4931059;29;20147;-83
2023/08/02 07:58:29;;;;;;;2.92;0.95;;;;;;;19.81;82.31;99109.84;4936099;29;20102;-86
2023/08/02 08:00:55;;;;;;;4.50;1.30;;;;;;;20.10;81.12;99107.78;4954067;28;20039;-84
2023/08/02 08:03:22;;;;;;;6.25;1.17;;;;;;;21.03;78.81;99087.56;4937052;28;20126;-82
2023/08/02 08:05:48;;;;;;;0.85;0.40;;;;;;;22.22;74.14;99074.59;4948102;29;20058;-86
2023/08/02 08:08:15;;;;;;;1.02;0.88;;;;;;;22.93;70.37;99080.19;4942067;29;20048;-84
2023/08/02 08:10:51;;;;;;;2.47;1.23;;;;;;;23.45;68.80;99079.31;4932148;29;20055;-87
2023/08/02 08:13:20;;;;;;;2.42;1.10;;;;;;;23.32;67.89;99076.03;4938030;29;20039;-91
2023/08/02 08:15:47;;;;;;;2.25;0.70;;;;;;;22.53;70.29;99067.56;4932330;28;20497;-83
2023/08/02 08:18:15;;;;;;;0.80;0.57;;;;;;;22.23;72.12;99073.63;4932732;29;20039;-84
2023/08/02 08:20:41;;;;;;;2.35;0.90;;;;;;;22.39;71.89;99067.88;4937751;28;20444;-82
2023/08/02 08:23:08;;;;;;;1.33;0.80;;;;;;;22.75;69.83;99069.25;4938958;29;20039;-83
2023/08/02 08:25:35;;;;;;;0.90;0.90;;;;;;;23.60;68.44;99061.09;4931162;28;20483;-85
2023/08/02 08:28:01;;;;;;;3.95;0.82;;;;;;;24.84;62.95;99060.63;4935486;29;20039;-82
2023/08/02 08:30:28;;;;;;;4.28;0.90;;;;;;;26.04;57.69;99058.97;4939040;29;20055;-85
2023/08/02 08:32:54;;;;;;;1.85;1.23;;;;;;;26.76;51.85;99048.16;4936251;29;20071;-82
2023/08/02 08:35:21;;;;;;;3.53;0.93;;;;;;;27.00;52.08;99046.63;4935122;29;20045;-85
2023/08/02 08:37:49;;;;;;;0.95;0.95;;;;;;;26.87;51.44;99047.06;4934051;29;20828;-82
2023/08/02 08:40:22;;;;;;;2.43;1.10;;;;;;;25.83;53.64;99049.34;4919526;29;20142;-83
2023/08/02 08:42:51;;;;;;;3.55;1.02;;;;;;;24.76;55.88;99045.28;4934814;29;20082;-81
2023/08/02 08:45:23;;;;;;;1.38;0.70;;;;;;;23.63;57.97;99039.44;4941618;29;20778;-81
2023/08/02 08:47:53;;;;;;;2.30;0.93;;;;;;;22.74;60.70;99038.22;4943791;28;20031;-82
2023/08/02 08:50:24;;;;;;;2.53;0.98;;;;;;;22.00;63.85;99039.06;4948425;28;20482;-84
2023/08/02 08:52:51;;;;;;;0.73;0.70;;;;;;;21.66;65.45;99025.00;4939421;28;20050;-89
2023/08/02 08:55:19;;;;;;;1.85;0.90;;;;;;;21.32;67.08;99007.25;4952987;28;20050;-83
2023/08/02 08:57:50;;;;;;;4.15;0.95;;;;;;;21.09;68.20;98998.41;4926705;28;20058;-82
2023/08/02 09:00:20;;;;;;;1.42;1.23;;;;;;;20.81;69.84;99004.09;4935327;29;20050;-84
2023/08/02 09:02:47;;;;;;;1.48;1.27;;;;;;;20.36;72.58;98996.00;4948115;28;20487;-82
2023/08/02 09:05:17;;;;;;;1.02;0.90;;;;;;;19.90;75.09;98991.53;4923853;29;20047;-82
2023/08/02 09:07:44;;;;;;;1.50;1.10;;;;;;;19.74;76.07;98989.97;4935398;28;20052;-83
2023/08/02 09:10:13;;;;;;;1.10;0.70;;;;;;;19.66;77.37;98992.34;4937516;29;20035;-81
2023/08/02 09:12:45;;;;;;;3.20;1.10;;;;;;;19.70;77.89;98971.72;4936214;28;20179;-84
2023/08/02 09:15:15;;;;;;;1.50;1.15;;;;;;;19.88;76.88;98967.75;4931525;29;20139;-82
2023/08/02 09:17:48;;;;;;;1.25;1.05;;;;;;;19.99;76.61;98957.16;4933567;28;20055;-84
2023/08/02 09:20:16;;;;;;;2.63;1.15;;;;;;;20.20;75.81;98955.66;4918081;29;20067;-83
2023/08/02 09:22:43;;;;;;;1.52;1.10;;;;;;;20.63;74.19;98947.84;4936391;28;20372;-82
2023/08/02 09:25:26;;;;;;;1.73;1.63;;;;;;;21.11;71.75;98944.13;4949265;28;20050;-83
2023/08/02 09:27:55;;;;;;;2.83;1.10;;;;;;;21.64;68.85;98923.91;4920437;29;20042;-83
2023/08/02 09:30:32;;;;;;;0.90;0.88;;;;;;;21.70;67.96;98930.56;4947564;28;20054;-88
2023/08/02 09:33:09;;;;;;;1.13;1.08;;;;;;;21.39;69.61;98919.75;4920753;29;20066;-82
2023/08/02 09:35:51;;;;;;;2.45;1.67;;;;;;;21.02;72.06;98922.75;4914140;28;20050;-86
2023/08/02 09:38:18;;;;;;;2.28;1.10;;;;;;;20.87;73.01;98924.81;4929967;28;20519;-87
2023/08/02 09:40:47;;;;;;;3.33;1.50;;;;;;;20.60;74.63;98918.03;4930262;28;20589;-83
2023/08/02 09:43:16;;;;;;;2.47;1.63;;;;;;;20.43;75.71;98909.53;4933507;29;20066;-82
2023/08/02 09:45:44;;;;;;;4.85;1.67;;;;;;;20.38;76.26;98918.84;4932220;28;20058;-82
2023/08/02 09:48:11;;;;;;;2.58;1.67;;;;;;;20.39;77.09;98908.09;4919804;29;20146;-87
2023/08/02 09:50:58;;;;;;;1.70;1.60;;;;;;;20.30;79.69;98909.66;4932981;28;20043;-84
2023/08/02 09:53:25;;;;;;;6.60;2.10;;;;;;;19.93;85.19;98906.31;4936447;28;20129;-82
2023/08/02 09:55:56;;;;;;;2.03;1.92;;;;;;;19.59;87.50;98908.81;4930054;29;20059;-82
2023/08/02 09:58:26;;;;;;;4.07;2.08;;;;;;;19.45;89.03;98902.72;4948161;28;20042;-85
2023/08/02 10:00:54;;;;;;;5.97;2.20;;;;;;;19.64;88.06;98894.22;4935714;28;20494;-85
2023/08/02 10:03:26;;;;;;;4.05;1.90;;;;;;;19.85;86.95;98890.97;4918699;29;20043;-88
2023/08/02 10:05:57;;;;;;;2.28;1.83;;;;;;;19.89;87.55;98886.25;4920411;29;20114;-83
2023/08/02 10:08:26;;;;;;;4.38;1.67;;;;;;;19.72;88.97;98887.50;4948497;28;20062;-85
2023/08/02 10:10:57;;;;;;;5.43;2.60;;;;;;;19.40;93.82;98873.03;4938687;29;20040;-82
2023/08/02 10:13:28;;;;;;;5.22;1.92;;;;;;;19.02;96.18;98860.78;4919491;29;20049;-82
2023/08/02 10:15:58;;;;;;;2.08;1.60;;;;;;;18.74;98.73;98865.38;4933475;29;20062;-85
2023/08/02 10:18:28;;;;;;;4.07;2.72;;;;;;;18.55;99.13;98870.31;4937711;28;20044;-84
2023/08/02 10:20:58;;;;;;;3.75;2.15;;;;;;;18.34;100.00;98860.25;4934492;29;20047;-84
2023/08/02 10:23:25;;;;;;;9.23;2.47;;;;;;;18.10;100.00;98861.00;4937534;29;20043;-84
2023/08/02 10:25:53;;;;;;;2.95;2.05;;;;;;;17.63;100.00;98871.19;4937327;29;20399;-83
2023/08/02 10:28:22;;;;;;;4.65;2.63;;;;;;;17.29;100.00;98859.38;4938193;29;20094;-83
2023/08/02 10:30:52;;;;;;;4.60;2.33;;;;;;;17.13;100.00;98862.16;4921024;29;20086;-83
2023/08/02 10:33:21;;;;;;;3.03;2.72;;;;;;;17.08;100.00;98854.53;4935206;29;20085;-85
2023/08/02 10:36:06;;;;;;;4.00;2.63;;;;;;;17.06;100.00;98848.47;4918611;29;20047;-90
2023/08/02 10:38:42;;;;;;;4.53;2.80;;;;;;;17.09;100.00;98848.31;4933470;29;20067;-90
2023/08/02 10:41:16;;;;;;;3.10;2.47;;;;;;;17.07;100.00;98836.13;4952431;28;20039;-83
2023/08/02 10:43:52;;;;;;;3.42;2.40;;;;;;;17.05;100.00;98819.50;4918640;28;20055;-86
2023/08/02 10:46:28;;;;;;;3.22;2.65;;;;;;;17.02;100.00;98812.63;4936509;29;20086;-82
2023/08/02 10:48:57;;;;;;;7.55;2.70;;;;;;;17.14;100.00;98813.63;4918593;29;20051;-85
2023/08/02 10:51:37;;;;;;;3.47;2.70;;;;;;;17.20;100.00;98810.56;4928654;28;20613;-89
2023/08/02 10:54:22;;;;;;;3.72;2.65;;;;;;;17.33;100.00;98803.50;4930042;29;20043;-86
2023/08/02 10:57:10;;;;;;;3.58;3.28;;;;;;;17.30;100.00;98797.56;4934001;29;20399;-85
2023/08/02 10:59:41;;;;;;;2.33;2.13;;;;;;;17.37;100.00;98780.34;4938058;29;20139;-83
2023/08/02 11:02:13;;;;;;;3.17;2.47;;;;;;;17.45;100.00;98779.84;4928124;29;20124;-84
2023/08/02 11:04:48;;;;;;;4.17;2.17;;;;;;;17.41;100.00;98784.50;4951354;28;20427;-83
2023/08/02 11:07:21;;;;;;;2.75;2.53;;;;;;;17.34;100.00;98778.78;4936665;29;20058;-83
2023/08/02 11:09:54;;;;;;;2.95;2.75;;;;;;;17.29;100.00;98772.94;4940348;29;20467;-86
2023/08/02 11:12:26;;;;;;;3.92;2.35;;;;;;;17.22;100.00;98782.22;4942623;29;20043;-84
2023/08/02 11:14:55;;;;;;;6.70;2.87;;;;;;;17.18;100.00;98767.50;4942097;28;20047;-85
2023/08/02 11:17:25;;;;;;;3.08;2.13;;;;;;;17.15;100.00;98765.09;4923709;29;20055;-84
2023/08/02 11:19:57;;;;;;;3.10;2.55;;;;;;;17.15;100.00;98757.16;4944610;29;20066;-88
2023/08/02 11:22:23;;;;;;;5.70;2.40;;;;;;;17.19;100.00;98756.00;4948951;28;20150;-84
2023/08/02 11:24:53;;;;;;;3.03;2.72;;;;;;;17.19;100.00;98745.41;4952064;28;20551;-87
2023/08/02 11:27:26;;;;;;;2.58;2.35;;;;;;;17.15;100.00;98730.72;4942995;29;20046;-90
2023/08/02 11:30:07;;;;;;;5.03;2.65;;;;;;;17.05;100.00;98727.81;4929873;28;20039;-84
2023/08/02 11:32:43;;;;;;;3.83;3.50;;;;;;;16.87;100.00;98722.78;4936322;28;20042;-83
2023/08/02 11:35:09;;;;;;;2.83;2.63;;;;;;;16.81;100.00;98723.19;4932837;29;20718;-84